FIMP

Sir Seewoosagur Ramgoolam International Airport

Port Louis, Mauritius
METAR FIMP 221500Z 14012KT 9999 SCT017 25/20 Q1020
Observed Flight Rules
May-22 @ 15:00 UTC (23 minutes ago) Visual Flight Rules
Wind Visibility Clouds
140° at 12 knots 10,000+ meters
  • Scattered at 1,700' AGL
Temperatures Readings
Current 25°C / 77°F
Dewpoint 20°C / 68°F
Humidity 74%
Altimeter 30.12" Hg
Pressure 1020 hPa
Elevation 57
METAR FIMP 221500Z 14012KT 9999 SCT017 25/20 Q1020
Observed Flight Rules
May-22 @ 15:00 UTC
(23 minutes ago)
VFR
Wind Visibility
140° at 12 knots 10,000+ meters
Clouds
  • Scattered at 1,700' AGL
Temperature Dewpoint
25°C / 77°F 20°C / 68°F
Humidity Altimeter Pressure
74% 30.12" Hg 1020 hPa